createdAt,value
2023-03-13T00:01:25.151Z,98115.89
2023-03-13T00:03:29.150Z,98105.95
2023-03-13T00:05:35.710Z,98103.20
2023-03-13T00:07:38.632Z,98098.41
2023-03-13T00:09:42.150Z,98092.65
2023-03-13T00:11:46.212Z,98093.98
2023-03-13T00:13:48.923Z,98085.79
2023-03-13T00:16:03.393Z,98084.85
2023-03-13T00:18:06.084Z,98085.73
2023-03-13T00:20:09.891Z,98077.18
2023-03-13T00:22:14.875Z,98077.09
2023-03-13T00:24:20.121Z,98077.86
2023-03-13T00:26:25.488Z,98076.02
2023-03-13T00:28:32.535Z,98076.46
2023-03-13T00:30:35.367Z,98075.34
2023-03-13T00:32:42.399Z,98077.14
2023-03-13T00:34:47.051Z,98075.81
2023-03-13T00:36:50.707Z,98075.52
2023-03-13T00:38:54.436Z,98074.80
2023-03-13T00:41:05.796Z,98074.77
2023-03-13T00:43:08.687Z,98070.70
2023-03-13T00:45:11.466Z,98068.41
2023-03-13T00:47:14.056Z,98066.77
2023-03-13T00:49:19.171Z,98066.39
2023-03-13T00:51:23.985Z,98065.43
2023-03-13T00:53:27.305Z,98059.54
2023-03-13T00:55:30.391Z,98053.50
2023-03-13T00:57:37.339Z,98051.98
2023-03-13T00:59:40.016Z,98049.44
2023-03-13T01:01:43.066Z,98051.09
2023-03-13T01:03:48.959Z,98051.90
2023-03-13T01:06:02.125Z,98047.11
2023-03-13T01:08:05.301Z,98042.70
2023-03-13T01:10:09.050Z,98040.01
2023-03-13T01:12:12.056Z,98040.90
2023-03-13T01:14:19.927Z,98031.35
2023-03-13T01:16:23.681Z,98028.83
2023-03-13T01:18:27.977Z,98028.61
2023-03-13T01:20:30.957Z,98028.19
2023-03-13T01:22:33.523Z,98027.59
2023-03-13T01:24:36.310Z,98028.69
2023-03-13T01:26:39.159Z,98026.54
2023-03-13T01:28:41.831Z,98018.48
2023-03-13T01:30:44.997Z,98018.30
2023-03-13T01:32:47.687Z,98018.54
2023-03-13T01:34:50.300Z,98017.00
2023-03-13T01:36:53.609Z,98010.95
2023-03-13T01:38:59.820Z,98009.16
2023-03-13T01:41:02.844Z,98010.59
2023-03-13T01:43:27.059Z,98013.95
2023-03-13T01:45:55.285Z,98011.20
2023-03-13T01:48:00.645Z,97994.95
2023-03-13T01:50:21.141Z,97996.21
2023-03-13T01:52:31.976Z,97997.86
2023-03-13T01:55:10.503Z,98000.20
2023-03-13T01:57:21.706Z,98002.48
2023-03-13T01:59:35.186Z,98002.05
2023-03-13T02:01:38.677Z,97998.92
2023-03-13T02:03:42.910Z,97997.40
2023-03-13T02:05:49.669Z,97991.10
2023-03-13T02:08:03.826Z,97982.87
2023-03-13T02:10:09.088Z,97975.73
2023-03-13T02:12:16.360Z,97970.09
2023-03-13T02:14:22.465Z,97960.00
2023-03-13T02:16:26.925Z,97959.14
2023-03-13T02:18:29.680Z,97953.95
2023-03-13T02:20:32.489Z,97950.64
2023-03-13T02:22:49.969Z,97946.98
2023-03-13T02:25:06.128Z,97945.09
2023-03-13T02:27:09.545Z,97941.92
2023-03-13T02:29:18.380Z,97942.19
2023-03-13T02:31:21.463Z,97940.69
2023-03-13T02:33:29.167Z,97938.27
2023-03-13T02:35:33.501Z,97931.32
2023-03-13T02:37:39.104Z,97930.55
2023-03-13T02:39:45.929Z,97931.19
2023-03-13T02:41:50.326Z,97927.08
2023-03-13T02:43:53.448Z,97924.16
2023-03-13T02:46:05.083Z,97921.35
2023-03-13T02:48:08.716Z,97912.66
2023-03-13T02:50:13.485Z,97918.04
2023-03-13T02:52:30.614Z,97918.09
2023-03-13T02:54:37.715Z,97917.02
2023-03-13T02:56:42.356Z,97915.04
2023-03-13T02:58:50.265Z,97911.77
2023-03-13T03:00:55.763Z,97908.83
2023-03-13T03:02:59.065Z,97901.29
2023-03-13T03:05:01.770Z,97896.02
2023-03-13T03:07:04.849Z,97892.83
2023-03-13T03:09:08.472Z,97886.54
2023-03-13T03:11:12.804Z,97883.56
2023-03-13T03:13:16.915Z,97876.27
2023-03-13T03:15:19.787Z,97880.70
2023-03-13T03:17:23.437Z,97882.21
2023-03-13T03:19:26.235Z,97884.42
2023-03-13T03:21:29.520Z,97888.80
2023-03-13T03:23:33.890Z,97890.85
2023-03-13T03:25:36.588Z,97889.58
2023-03-13T03:27:39.977Z,97891.55
2023-03-13T03:29:43.951Z,97893.61
2023-03-13T03:31:47.401Z,97891.73
2023-03-13T03:33:50.140Z,97890.98
2023-03-13T03:35:59.638Z,97885.48
2023-03-13T03:38:02.686Z,97882.01
2023-03-13T03:40:07.263Z,97877.89
2023-03-13T03:42:11.274Z,97875.51
2023-03-13T03:44:14.096Z,97876.41
2023-03-13T03:46:25.530Z,97873.38
2023-03-13T03:48:29.278Z,97866.20
2023-03-13T03:50:33.755Z,97867.31
2023-03-13T03:52:39.133Z,97861.50
2023-03-13T03:54:41.905Z,97852.22
2023-03-13T03:56:44.756Z,97851.06
2023-03-13T03:58:47.402Z,97843.56
2023-03-13T04:01:10.312Z,97840.27
2023-03-13T04:03:16.616Z,97834.70
2023-03-13T04:05:19.944Z,97837.17
2023-03-13T04:07:22.591Z,97838.23
2023-03-13T04:09:29.915Z,97833.95
2023-03-13T04:11:34.172Z,97824.54
2023-03-13T04:13:36.925Z,97818.66
2023-03-13T04:15:41.010Z,97811.68
2023-03-13T04:17:45.298Z,97804.94
2023-03-13T04:19:48.608Z,97798.09
2023-03-13T04:21:51.672Z,97796.51
2023-03-13T04:23:56.393Z,97783.79
2023-03-13T04:25:59.563Z,97785.27
2023-03-13T04:28:02.530Z,97782.45
2023-03-13T04:30:12.728Z,97775.77
2023-03-13T04:32:38.183Z,97772.79
2023-03-13T04:34:58.823Z,97762.70
2023-03-13T04:37:22.713Z,97761.23
2023-03-13T04:39:38.435Z,97759.41
2023-03-13T04:41:49.975Z,97765.60
2023-03-13T04:44:19.386Z,97762.91
2023-03-13T04:46:52.009Z,97760.39
2023-03-13T04:49:20.820Z,97757.48
2023-03-13T04:51:44.938Z,97756.67
2023-03-13T04:54:03.478Z,97761.11
2023-03-13T04:56:41.079Z,97756.53
2023-03-13T04:59:05.590Z,97753.39
2023-03-13T05:01:27.568Z,97744.20
2023-03-13T05:03:39.340Z,97747.34
2023-03-13T05:06:08.469Z,97746.89
2023-03-13T05:08:29.992Z,97746.89
2023-03-13T05:10:44.603Z,97746.23
2023-03-13T05:13:08.516Z,97747.14
2023-03-13T05:15:22.190Z,97749.20
2023-03-13T05:17:39.467Z,97741.84
2023-03-13T05:19:53.892Z,97739.48
2023-03-13T05:22:11.005Z,97731.66
2023-03-13T05:24:33.930Z,97726.70
2023-03-13T05:27:03.286Z,97727.08
2023-03-13T05:29:20.594Z,97732.02
2023-03-13T05:31:42.639Z,97730.84
2023-03-13T05:34:03.856Z,97721.63
2023-03-13T05:36:25.145Z,97714.98
2023-03-13T05:38:48.307Z,97715.14
2023-03-13T05:40:58.674Z,97713.83
2023-03-13T05:43:20.366Z,97710.48
2023-03-13T05:45:41.190Z,97707.66
2023-03-13T05:47:59.022Z,97703.38
2023-03-13T05:50:20.359Z,97700.44
2023-03-13T05:52:57.936Z,97696.42
2023-03-13T05:55:12.249Z,97697.52
2023-03-13T05:57:39.436Z,97696.20
2023-03-13T05:59:55.563Z,97693.70
2023-03-13T06:02:17.718Z,97693.01
2023-03-13T06:04:21.216Z,97697.48
2023-03-13T06:06:25.020Z,97694.45
2023-03-13T06:08:30.889Z,97693.05
2023-03-13T06:10:36.491Z,97693.15
2023-03-13T06:12:39.189Z,97691.31
2023-03-13T06:14:42.888Z,97686.56
2023-03-13T06:16:46.254Z,97684.86
2023-03-13T06:18:55.543Z,97686.86
2023-03-13T06:21:01.376Z,97689.58
2023-03-13T06:23:04.422Z,97684.27
2023-03-13T06:25:07.636Z,97684.63
2023-03-13T06:27:11.372Z,97680.35
2023-03-13T06:29:14.355Z,97671.41
2023-03-13T06:31:17.432Z,97680.72
2023-03-13T06:33:20.162Z,97666.83
2023-03-13T06:35:22.873Z,97661.05
2023-03-13T06:37:25.457Z,97657.71
2023-03-13T06:39:28.267Z,97646.09
2023-03-13T06:41:31.311Z,97649.38
2023-03-13T06:43:35.004Z,97645.86
2023-03-13T06:45:37.773Z,97648.40
2023-03-13T06:47:41.297Z,97647.55
2023-03-13T06:49:44.262Z,97643.96
2023-03-13T06:51:47.160Z,97641.17
2023-03-13T06:53:52.270Z,97655.98
2023-03-13T06:55:54.911Z,97658.15
2023-03-13T06:57:57.794Z,97663.63
2023-03-13T07:00:00.501Z,97675.41
2023-03-13T07:02:03.316Z,97675.05
2023-03-13T07:04:06.044Z,97673.59
2023-03-13T07:06:12.873Z,97671.95
2023-03-13T07:08:15.520Z,97679.70
2023-03-13T07:10:18.301Z,97676.00
2023-03-13T07:12:21.322Z,97672.25
2023-03-13T07:14:24.440Z,97676.50
2023-03-13T07:16:27.247Z,97676.26
2023-03-13T07:18:30.606Z,97673.14
2023-03-13T07:20:34.321Z,97673.36
2023-03-13T07:22:38.150Z,97671.48
2023-03-13T07:24:41.059Z,97666.48
2023-03-13T07:26:57.717Z,97667.98
2023-03-13T07:29:06.364Z,97662.95
2023-03-13T07:31:19.497Z,97662.36
2023-03-13T07:33:22.180Z,97663.13
2023-03-13T07:35:24.752Z,97658.44
2023-03-13T07:37:27.469Z,97654.63
2023-03-13T07:39:30.158Z,97651.83
2023-03-13T07:41:33.308Z,97638.02
2023-03-13T07:43:35.920Z,97626.34
2023-03-13T07:45:38.590Z,97632.14
2023-03-13T07:47:41.447Z,97628.78
2023-03-13T07:49:46.454Z,97633.65
2023-03-13T07:51:51.034Z,97634.22
2023-03-13T07:53:54.470Z,97648.95
2023-03-13T07:56:00.050Z,97653.79
2023-03-13T07:58:02.857Z,97658.05
2023-03-13T08:00:12.058Z,97651.35
2023-03-13T08:02:16.424Z,97656.46
2023-03-13T08:04:19.532Z,97647.10
2023-03-13T08:06:24.883Z,97643.21
2023-03-13T08:08:28.759Z,97646.66
2023-03-13T08:10:31.559Z,97643.25
2023-03-13T08:12:34.522Z,97642.86
2023-03-13T08:14:37.157Z,97640.69
2023-03-13T08:16:40.069Z,97635.88
2023-03-13T08:18:45.835Z,97636.74
2023-03-13T08:20:48.451Z,97639.45
2023-03-13T08:22:51.411Z,97636.58
2023-03-13T08:24:54.190Z,97640.70
2023-03-13T08:26:56.876Z,97631.81
2023-03-13T08:29:04.238Z,97616.90
2023-03-13T08:31:29.118Z,97614.38
2023-03-13T08:33:31.702Z,97630.86
2023-03-13T08:35:34.537Z,97630.19
2023-03-13T08:37:37.185Z,97635.91
2023-03-13T08:39:39.758Z,97634.59
2023-03-13T08:41:42.545Z,97633.67
2023-03-13T08:43:45.830Z,97635.26
2023-03-13T08:45:54.769Z,97637.79
2023-03-13T08:47:59.416Z,97638.84
2023-03-13T08:50:03.319Z,97644.65
2023-03-13T08:52:07.775Z,97649.27
2023-03-13T08:54:10.530Z,97650.62
2023-03-13T08:56:16.408Z,97649.34
2023-03-13T08:58:19.095Z,97650.23
2023-03-13T09:00:22.100Z,97643.96
2023-03-13T09:02:25.745Z,97644.29
2023-03-13T09:04:29.369Z,97644.50
2023-03-13T09:06:33.994Z,97646.53
2023-03-13T09:08:38.005Z,97648.68
2023-03-13T09:10:43.474Z,97648.43
2023-03-13T09:12:47.644Z,97650.48
2023-03-13T09:14:51.891Z,97643.75
2023-03-13T09:16:56.789Z,97640.77
2023-03-13T09:19:02.399Z,97632.28
2023-03-13T09:21:11.839Z,97627.40
2023-03-13T09:23:14.436Z,97618.71
2023-03-13T09:25:19.930Z,97619.36
2023-03-13T09:27:22.517Z,97611.93
2023-03-13T09:29:25.184Z,97612.41
2023-03-13T09:31:30.275Z,97611.14
2023-03-13T09:33:33.333Z,97604.27
2023-03-13T09:35:39.395Z,97598.19
2023-03-13T09:37:42.153Z,97597.55
2023-03-13T09:39:45.026Z,97602.36
2023-03-13T09:41:58.950Z,97611.24
2023-03-13T09:44:32.601Z,97610.86
2023-03-13T09:46:54.078Z,97610.19
2023-03-13T09:49:25.921Z,97609.70
2023-03-13T09:51:35.311Z,97615.17
2023-03-13T09:53:59.371Z,97611.23
2023-03-13T09:56:05.286Z,97605.60
2023-03-13T09:58:10.928Z,97606.11
2023-03-13T10:00:19.869Z,97612.27
2023-03-13T10:02:34.212Z,97607.44
2023-03-13T10:04:42.947Z,97613.41
2023-03-13T10:06:48.794Z,97609.64
2023-03-13T10:08:52.986Z,97606.19
2023-03-13T10:11:18.517Z,97604.31
2023-03-13T10:13:36.882Z,97601.27
2023-03-13T10:15:52.599Z,97602.20
2023-03-13T10:17:55.906Z,97598.09
2023-03-13T10:20:26.546Z,97593.31
2023-03-13T10:22:32.426Z,97589.34
2023-03-13T10:25:29.752Z,97590.77
2023-03-13T10:27:43.121Z,97592.09
2023-03-13T10:29:46.399Z,97593.71
2023-03-13T10:32:00.583Z,97590.45
2023-03-13T10:34:12.675Z,97586.14
2023-03-13T10:36:15.920Z,97589.23
2023-03-13T10:38:20.715Z,97573.49
2023-03-13T10:40:25.865Z,97572.47
2023-03-13T10:42:35.839Z,97571.14
2023-03-13T10:44:39.228Z,97571.12
2023-03-13T10:46:44.770Z,97569.59
2023-03-13T10:48:47.501Z,97559.23
2023-03-13T10:50:52.760Z,97557.68
2023-03-13T10:52:55.864Z,97555.20
2023-03-13T10:55:07.208Z,97553.89
2023-03-13T10:57:09.862Z,97549.91
2023-03-13T10:59:27.080Z,97547.00
2023-03-13T11:01:52.753Z,97544.95
2023-03-13T11:03:57.252Z,97541.41
2023-03-13T11:06:02.598Z,97536.13
2023-03-13T11:08:20.076Z,97532.45
2023-03-13T11:10:26.253Z,97531.62
2023-03-13T11:12:33.169Z,97527.48
2023-03-13T11:14:36.601Z,97525.70
2023-03-13T11:16:49.293Z,97527.69
2023-03-13T11:19:13.443Z,97522.91
2023-03-13T11:21:45.356Z,97522.66
2023-03-13T11:24:01.891Z,97520.59
2023-03-13T11:26:16.572Z,97520.38
2023-03-13T11:28:30.161Z,97520.31
2023-03-13T11:30:42.379Z,97517.02
2023-03-13T11:33:01.979Z,97515.29
2023-03-13T11:35:17.908Z,97510.01
2023-03-13T11:37:22.659Z,97503.89
2023-03-13T11:39:50.635Z,97507.75
2023-03-13T11:42:14.320Z,97513.60
2023-03-13T11:44:28.570Z,97510.45
2023-03-13T11:47:05.273Z,97502.40
2023-03-13T11:49:29.466Z,97502.83
2023-03-13T11:51:50.804Z,97501.59
2023-03-13T11:54:45.049Z,97496.06
2023-03-13T11:57:29.912Z,97482.89
2023-03-13T11:59:48.106Z,97481.36
2023-03-13T12:01:56.007Z,97487.48
2023-03-13T12:04:12.227Z,97480.38
2023-03-13T12:06:59.928Z,97483.50
2023-03-13T12:09:21.766Z,97485.55
2023-03-13T12:11:43.534Z,97481.81
2023-03-13T12:13:54.563Z,97476.48
2023-03-13T12:16:02.585Z,97476.88
2023-03-13T12:18:16.542Z,97466.68
2023-03-13T12:20:27.656Z,97461.74
2023-03-13T12:22:41.466Z,97462.73
2023-03-13T12:24:55.232Z,97461.60
2023-03-13T12:27:16.445Z,97455.55
2023-03-13T12:29:57.757Z,97451.99
2023-03-13T12:32:09.315Z,97450.54
2023-03-13T12:34:26.177Z,97446.10
2023-03-13T12:36:46.670Z,97444.04
2023-03-13T12:39:01.381Z,97436.23
2023-03-13T12:41:20.426Z,97431.42
2023-03-13T12:43:23.082Z,97428.77
2023-03-13T12:45:26.654Z,97425.90
2023-03-13T12:47:46.347Z,97422.77
2023-03-13T12:50:10.230Z,97417.17
2023-03-13T12:53:09.011Z,97419.31
2023-03-13T12:55:44.592Z,97425.33
2023-03-13T12:58:06.930Z,97415.84
2023-03-13T13:00:21.671Z,97410.89
2023-03-13T13:02:29.630Z,97399.30
2023-03-13T13:04:41.522Z,97388.02
2023-03-13T13:07:02.461Z,97373.77
2023-03-13T13:09:17.922Z,97375.52
2023-03-13T13:11:38.558Z,97372.77
2023-03-13T13:13:41.451Z,97362.95
2023-03-13T13:16:07.716Z,97362.98
2023-03-13T13:18:24.925Z,97356.45
2023-03-13T13:20:39.189Z,97351.25
2023-03-13T13:22:42.070Z,97333.98
2023-03-13T13:24:53.364Z,97336.08
2023-03-13T13:26:56.142Z,97333.73
2023-03-13T13:29:01.158Z,97328.61
2023-03-13T13:31:43.106Z,97324.16
2023-03-13T13:33:45.820Z,97322.27
2023-03-13T13:36:08.442Z,97321.00
2023-03-13T13:38:19.832Z,97320.27
2023-03-13T13:40:29.302Z,97320.68
2023-03-13T13:42:42.213Z,97317.47
2023-03-13T13:45:17.232Z,97317.01
2023-03-13T13:47:26.211Z,97317.43
2023-03-13T13:49:32.869Z,97314.12
2023-03-13T13:51:37.146Z,97304.39
2023-03-13T13:54:16.868Z,97310.64
2023-03-13T13:56:32.209Z,97305.64
2023-03-13T13:58:39.440Z,97297.24
2023-03-13T14:00:46.476Z,97285.88
2023-03-13T14:02:54.538Z,97283.74
2023-03-13T14:05:14.913Z,97273.91
2023-03-13T14:07:41.669Z,97263.16
2023-03-13T14:10:00.941Z,97267.31
2023-03-13T14:12:32.839Z,97267.25
2023-03-13T14:14:35.444Z,97263.61
2023-03-13T14:16:39.005Z,97259.95
2023-03-13T14:18:43.784Z,97251.50
2023-03-13T14:20:49.804Z,97250.70
2023-03-13T14:22:54.124Z,97249.73
2023-03-13T14:24:58.552Z,97249.10
2023-03-13T14:27:01.553Z,97249.46
2023-03-13T14:29:07.405Z,97248.69
2023-03-13T14:31:12.254Z,97240.44
2023-03-13T14:33:15.514Z,97232.80
2023-03-13T14:35:22.413Z,97232.86
2023-03-13T14:37:42.212Z,97228.13
2023-03-13T14:39:46.101Z,97222.70
2023-03-13T14:41:51.220Z,97217.66
2023-03-13T14:43:55.600Z,97211.30
2023-03-13T14:46:00.501Z,97202.98
2023-03-13T14:48:32.530Z,97197.80
2023-03-13T14:50:35.959Z,97187.01
2023-03-13T14:52:46.285Z,97180.55
2023-03-13T14:54:56.330Z,97168.64
2023-03-13T14:57:17.619Z,97165.71
2023-03-13T14:59:29.033Z,97148.08
2023-03-13T15:01:31.865Z,97139.45
2023-03-13T15:03:34.571Z,97135.66
2023-03-13T15:05:37.152Z,97125.09
2023-03-13T15:07:43.118Z,97120.86
2023-03-13T15:09:47.411Z,97115.45
2023-03-13T15:12:02.056Z,97107.56
2023-03-13T15:14:35.568Z,97109.58
2023-03-13T15:16:38.306Z,97099.92
2023-03-13T15:18:41.149Z,97094.97
2023-03-13T15:20:43.764Z,97091.27
2023-03-13T15:22:46.873Z,97088.05
2023-03-13T15:25:04.976Z,97080.08
2023-03-13T15:27:19.123Z,97072.40
2023-03-13T15:29:21.929Z,97063.58
2023-03-13T15:31:28.962Z,97062.84
2023-03-13T15:33:31.916Z,97056.02
2023-03-13T15:35:34.562Z,97058.62
2023-03-13T15:37:37.408Z,97046.01
2023-03-13T15:39:40.496Z,97043.02
2023-03-13T15:41:43.494Z,97034.98
2023-03-13T15:43:46.731Z,97025.41
2023-03-13T15:45:53.407Z,97027.36
2023-03-13T15:47:56.206Z,97034.38
2023-03-13T15:49:59.014Z,97029.00
2023-03-13T15:52:01.939Z,97025.39
2023-03-13T15:54:04.876Z,97018.48
2023-03-13T15:56:31.489Z,97017.93
2023-03-13T15:58:34.317Z,97015.00
2023-03-13T16:00:37.144Z,97012.58
2023-03-13T16:02:39.754Z,97007.84
2023-03-13T16:04:43.287Z,97009.73
2023-03-13T16:06:46.020Z,97004.25
2023-03-13T16:08:48.956Z,97001.13
2023-03-13T16:10:51.991Z,97008.92
2023-03-13T16:12:54.998Z,97006.38
2023-03-13T16:14:57.570Z,96998.48
2023-03-13T16:17:02.048Z,96998.27
2023-03-13T16:19:04.873Z,97002.48
2023-03-13T16:21:19.285Z,96999.05
2023-03-13T16:23:23.244Z,96992.42
2023-03-13T16:25:27.319Z,96991.59
2023-03-13T16:27:30.674Z,96985.13
2023-03-13T16:29:33.786Z,96973.68
2023-03-13T16:31:36.558Z,96960.69
2023-03-13T16:33:39.366Z,96956.23
2023-03-13T16:35:41.998Z,96955.48
2023-03-13T16:37:46.131Z,96946.39
2023-03-13T16:39:50.680Z,96939.04
2023-03-13T16:41:53.348Z,96939.99
2023-03-13T16:43:56.756Z,96933.66
2023-03-13T16:45:59.408Z,96930.45
2023-03-13T16:48:02.418Z,96929.47
2023-03-13T16:50:22.137Z,96931.70
2023-03-13T16:52:24.849Z,96921.84
2023-03-13T16:54:27.486Z,96913.41
2023-03-13T16:56:37.532Z,96912.76
2023-03-13T16:58:40.300Z,96914.52
2023-03-13T17:00:46.875Z,96917.89
2023-03-13T17:02:54.215Z,96923.02
2023-03-13T17:04:57.148Z,96920.70
2023-03-13T17:07:00.601Z,96909.28
2023-03-13T17:09:05.758Z,96906.10
2023-03-13T17:11:14.993Z,96905.67
2023-03-13T17:13:20.531Z,96904.48
2023-03-13T17:15:25.341Z,96900.94
2023-03-13T17:17:28.657Z,96898.83
2023-03-13T17:19:32.205Z,96883.93
2023-03-13T17:21:36.567Z,96895.17
2023-03-13T17:23:39.232Z,96891.85
2023-03-13T17:25:42.060Z,96886.15
2023-03-13T17:27:47.449Z,96879.71
2023-03-13T17:29:50.613Z,96869.11
2023-03-13T17:31:56.176Z,96862.08
2023-03-13T17:34:02.087Z,96857.15
2023-03-13T17:36:21.602Z,96843.52
2023-03-13T17:38:24.723Z,96839.55
2023-03-13T17:40:29.284Z,96878.89
2023-03-13T17:42:32.640Z,97041.80
2023-03-13T17:44:35.509Z,97073.23
2023-03-13T17:46:42.059Z,97100.56
2023-03-13T17:48:47.289Z,97119.33
2023-03-13T17:50:50.642Z,97114.45
2023-03-13T17:52:54.000Z,97096.42
2023-03-13T17:54:57.777Z,97085.52
2023-03-13T17:57:03.166Z,97071.57
2023-03-13T17:59:10.346Z,97058.94
2023-03-13T18:01:19.414Z,97054.69
2023-03-13T18:03:23.452Z,97046.74
2023-03-13T18:05:27.620Z,97046.17
2023-03-13T18:07:30.636Z,97023.73
2023-03-13T18:09:33.854Z,97031.29
2023-03-13T18:11:37.873Z,97036.30
2023-03-13T18:13:40.749Z,97037.59
2023-03-13T18:15:43.543Z,97045.27
2023-03-13T18:17:48.316Z,97042.52
2023-03-13T18:19:51.739Z,97015.66
2023-03-13T18:21:55.758Z,97008.39
2023-03-13T18:23:59.072Z,97006.38
2023-03-13T18:26:01.725Z,97012.58
2023-03-13T18:28:08.431Z,97019.21
2023-03-13T18:30:17.964Z,97019.61
2023-03-13T18:32:21.290Z,97028.86
2023-03-13T18:34:24.792Z,97017.09
2023-03-13T18:36:29.085Z,97003.66
2023-03-13T18:38:32.630Z,97009.76
2023-03-13T18:40:36.245Z,97009.69
2023-03-13T18:42:39.545Z,97004.20
2023-03-13T18:44:42.320Z,97011.77
2023-03-13T18:46:46.992Z,96997.92
2023-03-13T18:48:52.877Z,96995.36
2023-03-13T18:50:57.043Z,96992.56
2023-03-13T18:53:02.137Z,96996.17
2023-03-13T18:55:05.772Z,96987.66
2023-03-13T18:57:12.793Z,96980.66
2023-03-13T18:59:22.213Z,96961.52
2023-03-13T19:01:29.603Z,96945.98
2023-03-13T19:03:32.983Z,96943.04
2023-03-13T19:05:36.538Z,96944.44
2023-03-13T19:07:41.387Z,96945.92
2023-03-13T19:09:46.450Z,96941.82
2023-03-13T19:11:53.571Z,96945.55
2023-03-13T19:13:58.309Z,96947.39
2023-03-13T19:16:03.425Z,96935.92
2023-03-13T19:18:11.478Z,96929.80
2023-03-13T19:20:20.375Z,96924.20
2023-03-13T19:22:25.429Z,96906.80
2023-03-13T19:24:28.640Z,96896.85
2023-03-13T19:26:39.513Z,96901.48
2023-03-13T19:28:42.342Z,96907.38
2023-03-13T19:30:47.649Z,96913.09
2023-03-13T19:32:51.740Z,96926.82
2023-03-13T19:34:54.931Z,96934.44
2023-03-13T19:36:58.623Z,96941.59
2023-03-13T19:39:25.287Z,96948.23
2023-03-13T19:41:28.004Z,96957.20
2023-03-13T19:43:33.732Z,96965.05
2023-03-13T19:45:38.069Z,96966.65
2023-03-13T19:47:43.892Z,96957.69
2023-03-13T19:49:49.931Z,96950.48
2023-03-13T19:51:54.647Z,96949.89
2023-03-13T19:53:57.816Z,96942.80
2023-03-13T19:56:20.507Z,96939.06
2023-03-13T19:58:26.791Z,96943.34
2023-03-13T20:00:30.098Z,96938.16
2023-03-13T20:02:33.625Z,96922.05
2023-03-13T20:04:39.740Z,96908.53
2023-03-13T20:06:46.630Z,96887.86
2023-03-13T20:08:56.884Z,96873.08
2023-03-13T20:11:00.671Z,96852.16
2023-03-13T20:13:04.158Z,96858.70
2023-03-13T20:15:08.681Z,96882.27
2023-03-13T20:17:12.390Z,96889.85
2023-03-13T20:19:16.396Z,96897.17
2023-03-13T20:21:19.038Z,96906.67
2023-03-13T20:23:22.694Z,96911.67
2023-03-13T20:25:27.851Z,96920.83
2023-03-13T20:27:31.316Z,96911.24
2023-03-13T20:29:35.032Z,96911.31
2023-03-13T20:31:41.302Z,96910.16
2023-03-13T20:33:44.810Z,96911.77
2023-03-13T20:35:48.180Z,96915.60
2023-03-13T20:37:54.629Z,96914.88
2023-03-13T20:39:57.805Z,96921.19
2023-03-13T20:42:03.345Z,96922.23
2023-03-13T20:44:07.461Z,96933.19
2023-03-13T20:46:12.507Z,96954.35
2023-03-13T20:48:17.917Z,96960.27
2023-03-13T20:50:22.185Z,96965.05
2023-03-13T20:52:28.386Z,96961.73
2023-03-13T20:54:31.065Z,96963.27
2023-03-13T20:56:34.959Z,96957.64
2023-03-13T20:58:39.932Z,96957.69
2023-03-13T21:00:44.017Z,96947.79
2023-03-13T21:02:49.295Z,96960.77
2023-03-13T21:04:54.301Z,96973.59
2023-03-13T21:07:04.342Z,96980.46
2023-03-13T21:09:08.236Z,96987.44
2023-03-13T21:11:34.661Z,96994.23
2023-03-13T21:13:37.845Z,97005.38
2023-03-13T21:15:41.547Z,97018.50
2023-03-13T21:17:45.679Z,97024.77
2023-03-13T21:19:49.410Z,97026.98
2023-03-13T21:21:52.286Z,97025.71
2023-03-13T21:23:56.555Z,97023.64
2023-03-13T21:26:02.494Z,97012.91
2023-03-13T21:28:07.100Z,97009.46
2023-03-13T21:30:13.703Z,97003.13
2023-03-13T21:32:18.006Z,97000.03
2023-03-13T21:34:20.727Z,97000.29
2023-03-13T21:36:23.890Z,96994.47
2023-03-13T21:38:26.489Z,96986.37
2023-03-13T21:40:33.013Z,96974.23
2023-03-13T21:42:36.250Z,96977.34
2023-03-13T21:44:40.200Z,96970.46
2023-03-13T21:46:43.814Z,96965.38
2023-03-13T21:48:47.276Z,96958.94
2023-03-13T21:50:53.813Z,96947.86
2023-03-13T21:52:56.622Z,96931.77
2023-03-13T21:54:59.484Z,96914.37
2023-03-13T21:57:02.398Z,96882.66
2023-03-13T21:59:05.015Z,96857.90
2023-03-13T22:01:08.183Z,96855.02
2023-03-13T22:03:11.352Z,96813.92
2023-03-13T22:05:14.202Z,96793.36
2023-03-13T22:07:17.472Z,96757.98
2023-03-13T22:09:20.167Z,96742.15
2023-03-13T22:11:25.877Z,96731.91
2023-03-13T22:13:30.882Z,96738.83
2023-03-13T22:15:33.818Z,96745.13
2023-03-13T22:17:36.628Z,96757.93
2023-03-13T22:19:39.196Z,96777.63
2023-03-13T22:21:41.845Z,96790.02
2023-03-13T22:23:44.900Z,96799.89
2023-03-13T22:25:48.354Z,96804.97
2023-03-13T22:27:51.341Z,96812.77
2023-03-13T22:29:54.076Z,96796.60
2023-03-13T22:31:58.127Z,96809.41
2023-03-13T22:34:01.903Z,96823.66
2023-03-13T22:36:05.407Z,96834.77
2023-03-13T22:38:09.225Z,96836.96
2023-03-13T22:40:14.023Z,96846.30
2023-03-13T22:42:17.485Z,96854.19
2023-03-13T22:44:22.932Z,96847.52
2023-03-13T22:46:25.771Z,96845.13
2023-03-13T22:48:28.574Z,96845.63
2023-03-13T22:50:31.426Z,96842.80
2023-03-13T22:52:34.002Z,96842.50
2023-03-13T22:54:36.717Z,96837.06
2023-03-13T22:56:39.316Z,96833.83
2023-03-13T22:58:42.465Z,96820.13
2023-03-13T23:00:45.408Z,96809.05
2023-03-13T23:02:48.387Z,96811.16
2023-03-13T23:04:51.899Z,96803.64
2023-03-13T23:06:56.628Z,96800.63
2023-03-13T23:08:59.550Z,96799.25
2023-03-13T23:11:04.105Z,96808.91
2023-03-13T23:13:06.832Z,96804.59
2023-03-13T23:15:10.785Z,96791.17
2023-03-13T23:17:13.552Z,96790.51
2023-03-13T23:19:16.265Z,96776.12
2023-03-13T23:21:19.018Z,96769.95
2023-03-13T23:23:21.887Z,96764.64
2023-03-13T23:25:24.542Z,96762.48
2023-03-13T23:27:28.183Z,96758.27
2023-03-13T23:29:31.786Z,96756.30
2023-03-13T23:31:34.631Z,96760.49
2023-03-13T23:33:39.568Z,96759.23
2023-03-13T23:35:43.962Z,96760.17
2023-03-13T23:37:49.699Z,96762.28
2023-03-13T23:39:53.521Z,96763.05
2023-03-13T23:41:56.322Z,96753.45
2023-03-13T23:44:00.856Z,96752.09
2023-03-13T23:46:04.517Z,96747.28
2023-03-13T23:48:07.228Z,96752.08
2023-03-13T23:50:15.255Z,96760.45
2023-03-13T23:52:17.870Z,96776.78
2023-03-13T23:54:23.148Z,96773.91
2023-03-13T23:56:26.045Z,96767.84
2023-03-13T23:58:30.124Z,96764.09
